»·PEaware :: DCM717 KBOI-KBTM

DCM717 :: KBOI-KBTM

FLIGHT INFORMATION

Flight Status: Arrived
Operator: DotCom
More flights by this operator :: More flights under this callsign
Pilot: Ty S. (2873)
Aircraft: BOEING 737-300
(B733)
More flights by this aircraft type
Origin: KBOI Boise Air Terminal/Gowen
United States
Destination: KBTM Mooney
United States
More flights between these airports :: More routes between these airports
Route: +GOWEN4 BOI V113 CPN
File this flight plan on PilotEdge
Remarks: RMK / SIMBRIEF
Altitude:
(Current/Filed)
23,000ft
Speed:
(Current/Filed)
391kts
Departed: 22-May-20 06:47 PM
Arrived: 22-May-20 07:33 PM
Distance/Time
Traveled:
214nm/0:46
Distance/Time
To Go:
Arrived

Flight Plot

Page will automatically refresh every two minutes.


Map Options




Map Legend


Flown Route
Filed Route
Departure Airport
Arrival Airport
Navaid (VOR, NDB)
Fix

Horizontal Profiles

Position Reports

Time Latitude Longitude Heading Altitude Ground
Speed
22-May-20 18:15 43.570560 -116.231721 201 2878ft 0kts
22-May-20 18:16 43.570560 -116.231721 201 2878ft 0kts
22-May-20 18:17 43.570560 -116.231721 201 2878ft 0kts
22-May-20 18:18 43.570560 -116.231721 201 2878ft 0kts
22-May-20 18:19 43.570560 -116.231721 201 2878ft 0kts
22-May-20 18:20 43.570560 -116.231721 201 2878ft 0kts
22-May-20 18:21 43.570560 -116.231721 201 2878ft 0kts
22-May-20 18:22 43.570560 -116.231721 201 2878ft 0kts
22-May-20 18:23 43.570560 -116.231721 201 2878ft 0kts
22-May-20 18:24 43.570560 -116.231721 201 2878ft 0kts
22-May-20 18:25 43.570560 -116.231721 201 2878ft 0kts
22-May-20 18:26 43.570560 -116.231721 201 2878ft 0kts
22-May-20 18:27 43.570560 -116.231721 201 2878ft 0kts
22-May-20 18:28 43.570560 -116.231721 201 2878ft 0kts
22-May-20 18:29 43.570560 -116.231721 201 2878ft 0kts
22-May-20 18:30 43.570560 -116.231721 201 2878ft 0kts
22-May-20 18:31 43.570560 -116.231721 201 2878ft 0kts
22-May-20 18:32 43.570560 -116.231721 201 2878ft 0kts
22-May-20 18:33 43.570560 -116.231721 201 2878ft 0kts
22-May-20 18:34 43.570560 -116.231721 201 2878ft 0kts
22-May-20 18:35 43.570525 -116.231740 201 2878ft 1kts
22-May-20 18:36 43.570291 -116.231819 186 2878ft 0kts
22-May-20 18:37 43.570291 -116.231819 186 2878ft 0kts
22-May-20 18:38 43.570291 -116.231819 186 2878ft 0kts
22-May-20 18:39 43.568869 -116.229457 115 2878ft 15kts
22-May-20 18:40 43.566653 -116.222939 115 2878ft 20kts
22-May-20 18:41 43.563981 -116.215128 115 2878ft 23kts
22-May-20 18:42 43.561004 -116.206415 115 2878ft 25kts
22-May-20 18:43 43.559576 -116.202592 153 2878ft 0kts
22-May-20 18:44 43.559576 -116.202592 154 2878ft 0kts
22-May-20 18:45 43.559149 -116.202547 197 2878ft 8kts
22-May-20 18:46 43.564127 -116.219098 294 2878ft 141kts
22-May-20 18:47 43.552686 -116.271712 193 4428ft 210kts
22-May-20 18:48 43.489117 -116.277039 167 6405ft 244kts
22-May-20 18:49 43.464881 -116.195766 57 8258ft 277kts
22-May-20 18:50 43.534395 -116.180640 345 10265ft 296kts
22-May-20 18:51 43.609826 -116.117972 42 12044ft 344kts
22-May-20 18:52 43.681414 -116.023935 41 14713ft 357kts
22-May-20 18:53 43.755373 -115.926784 42 17218ft 370kts
22-May-20 18:54 43.831813 -115.826031 42 19498ft 383kts
22-May-20 18:55 43.910676 -115.721691 42 21584ft 395kts
22-May-20 18:56 43.992017 -115.613651 42 23022ft 404kts
22-May-20 18:57 44.073673 -115.504752 42 23017ft 403kts
22-May-20 18:58 44.154069 -115.397395 42 23014ft 403kts
22-May-20 18:59 44.232967 -115.291204 42 22974ft 404kts
22-May-20 19:00 44.314894 -115.180576 42 22935ft 405kts
22-May-20 19:01 44.398028 -115.067933 43 22937ft 419kts
22-May-20 19:02 44.483279 -114.951917 45 22942ft 423kts
22-May-20 19:03 44.568028 -114.836102 45 22933ft 422kts
22-May-20 19:04 44.652847 -114.719704 45 22928ft 422kts
22-May-20 19:05 44.737644 -114.602829 45 22929ft 422kts
22-May-20 19:06 44.821902 -114.486191 45 22928ft 422kts
22-May-20 19:07 44.906321 -114.368830 45 22933ft 421kts
22-May-20 19:08 44.989577 -114.252350 45 22951ft 423kts
22-May-20 19:09 45.074025 -114.133901 44 22958ft 420kts
22-May-20 19:10 45.154897 -114.020304 43 22944ft 415kts
22-May-20 19:11 45.237359 -113.903712 43 22957ft 417kts
22-May-20 19:12 45.320036 -113.786272 43 22954ft 416kts
22-May-20 19:13 45.402434 -113.668698 43 21497ft 408kts
22-May-20 19:14 45.481928 -113.554787 43 19466ft 393kts
22-May-20 19:15 45.559111 -113.443722 43 17430ft 381kts
22-May-20 19:16 45.630357 -113.340782 44 15475ft 369kts
22-May-20 19:18 45.702856 -113.235408 44 13451ft 354kts
22-May-20 19:19 45.767679 -113.141003 44 13001ft 310kts
22-May-20 19:20 45.828446 -113.052183 44 12991ft 309kts
22-May-20 19:21 45.889222 -112.963108 44 12992ft 311kts
22-May-20 19:22 45.950129 -112.873548 44 12990ft 308kts
22-May-20 19:23 45.981331 -112.759728 98 10579ft 318kts
22-May-20 19:24 45.947719 -112.651289 118 9695ft 276kts
22-May-20 19:25 45.912770 -112.564718 119 9069ft 218kts
22-May-20 19:26 45.901208 -112.495380 48 7619ft 164kts
22-May-20 19:27 45.944175 -112.493940 343 6498ft 185kts
22-May-20 19:28 45.994509 -112.525384 290 7114ft 189kts
22-May-20 19:29 45.979767 -112.585113 188 7301ft 193kts
22-May-20 19:30 45.929584 -112.553166 113 7304ft 177kts
22-May-20 19:31 45.933995 -112.493584 14 6005ft 146kts
22-May-20 19:32 45.962614 -112.499760 347 5555ft 49kts
22-May-20 19:33 45.964226 -112.501935 166 5555ft 18kts
22-May-20 19:34 45.959578 -112.500367 166 5555ft 15kts
22-May-20 19:35 45.955232 -112.500895 189 5555ft 14kts
22-May-20 19:35 45.954919 -112.501547 281 5555ft 2kts

Navigation Log

Ident Type
Flight plan parsing failed, navigation log unavailable